sensor_id;sensor_type;location;lat;lon;timestamp;temperature;humidity
43285;DHT22;28880;48.844;9.030;2022-09-12T00:00:28;12.80;99.90
43285;DHT22;28880;48.844;9.030;2022-09-12T00:02:54;12.80;99.90
43285;DHT22;28880;48.844;9.030;2022-09-12T00:05:20;12.70;99.90
43285;DHT22;28880;48.844;9.030;2022-09-12T00:07:46;12.70;99.90
43285;DHT22;28880;48.844;9.030;2022-09-12T00:10:11;12.60;99.90
43285;DHT22;28880;48.844;9.030;2022-09-12T00:12:37;12.60;99.90
43285;DHT22;28880;48.844;9.030;2022-09-12T00:15:03;12.60;99.90
43285;DHT22;28880;48.844;9.030;2022-09-12T00:17:29;12.70;99.90
43285;DHT22;28880;48.844;9.030;2022-09-12T00:19:54;12.70;99.90
43285;DHT22;28880;48.844;9.030;2022-09-12T00:22:20;12.70;99.90
43285;DHT22;28880;48.844;9.030;2022-09-12T00:24:46;12.70;99.90
43285;DHT22;28880;48.844;9.030;2022-09-12T00:27:11;12.70;99.90
43285;DHT22;28880;48.844;9.030;2022-09-12T00:29:37;12.60;99.90
43285;DHT22;28880;48.844;9.030;2022-09-12T00:32:03;12.60;99.90
43285;DHT22;28880;48.844;9.030;2022-09-12T00:34:29;12.60;99.90
43285;DHT22;28880;48.844;9.030;2022-09-12T00:36:54;12.60;99.90
43285;DHT22;28880;48.844;9.030;2022-09-12T00:39:20;12.50;99.90
43285;DHT22;28880;48.844;9.030;2022-09-12T00:41:45;12.40;99.90
43285;DHT22;28880;48.844;9.030;2022-09-12T00:46:41;12.40;99.90
43285;DHT22;28880;48.844;9.030;2022-09-12T00:51:42;12.40;99.90
43285;DHT22;28880;48.844;9.030;2022-09-12T00:54:13;12.30;99.90
43285;DHT22;28880;48.844;9.030;2022-09-12T00:56:42;12.30;99.90
43285;DHT22;28880;48.844;9.030;2022-09-12T00:59:19;12.20;99.90
43285;DHT22;28880;48.844;9.030;2022-09-12T01:01:48;12.20;99.90
43285;DHT22;28880;48.844;9.030;2022-09-12T01:04:15;12.20;99.90
43285;DHT22;28880;48.844;9.030;2022-09-12T01:06:42;12.20;99.90
43285;DHT22;28880;48.844;9.030;2022-09-12T01:09:11;12.20;99.90
43285;DHT22;28880;48.844;9.030;2022-09-12T01:11:39;12.20;99.90
43285;DHT22;28880;48.844;9.030;2022-09-12T01:14:06;12.30;99.90
43285;DHT22;28880;48.844;9.030;2022-09-12T01:16:34;12.30;99.90
43285;DHT22;28880;48.844;9.030;2022-09-12T01:19:11;12.30;99.90
43285;DHT22;28880;48.844;9.030;2022-09-12T01:21:53;12.30;99.90
43285;DHT22;28880;48.844;9.030;2022-09-12T01:38:09;12.20;99.90
43285;DHT22;28880;48.844;9.030;2022-09-12T01:46:27;12.10;99.90
43285;DHT22;28880;48.844;9.030;2022-09-12T01:49:16;12.10;99.90
43285;DHT22;28880;48.844;9.030;2022-09-12T01:54:24;12.10;99.90
43285;DHT22;28880;48.844;9.030;2022-09-12T01:56:55;12.10;99.90
43285;DHT22;28880;48.844;9.030;2022-09-12T01:59:28;12.10;99.90
43285;DHT22;28880;48.844;9.030;2022-09-12T02:02:00;12.10;99.90
43285;DHT22;28880;48.844;9.030;2022-09-12T02:04:40;12.10;99.90
43285;DHT22;28880;48.844;9.030;2022-09-12T02:07:13;12.10;99.90
43285;DHT22;28880;48.844;9.030;2022-09-12T02:09:50;12.10;99.90
43285;DHT22;28880;48.844;9.030;2022-09-12T02:12:21;12.10;99.90
43285;DHT22;28880;48.844;9.030;2022-09-12T02:14:54;12.10;99.90
43285;DHT22;28880;48.844;9.030;2022-09-12T02:17:22;12.10;99.90
43285;DHT22;28880;48.844;9.030;2022-09-12T02:19:54;12.10;99.90
43285;DHT22;28880;48.844;9.030;2022-09-12T02:22:22;12.00;99.90
43285;DHT22;28880;48.844;9.030;2022-09-12T02:24:53;12.00;99.90
43285;DHT22;28880;48.844;9.030;2022-09-12T02:27:23;12.00;99.90
43285;DHT22;28880;48.844;9.030;2022-09-12T02:29:50;12.00;99.90
43285;DHT22;28880;48.844;9.030;2022-09-12T02:32:24;11.90;99.90
43285;DHT22;28880;48.844;9.030;2022-09-12T02:39:59;11.90;99.90
43285;DHT22;28880;48.844;9.030;2022-09-12T02:42:25;11.80;99.90
43285;DHT22;28880;48.844;9.030;2022-09-12T02:44:52;11.80;99.90
43285;DHT22;28880;48.844;9.030;2022-09-12T02:47:32;11.80;99.90
43285;DHT22;28880;48.844;9.030;2022-09-12T02:49:58;11.80;99.90
43285;DHT22;28880;48.844;9.030;2022-09-12T02:52:25;11.80;99.90
43285;DHT22;28880;48.844;9.030;2022-09-12T02:54:52;11.80;99.90
43285;DHT22;28880;48.844;9.030;2022-09-12T02:57:20;11.70;99.90
43285;DHT22;28880;48.844;9.030;2022-09-12T02:59:47;11.70;99.90
43285;DHT22;28880;48.844;9.030;2022-09-12T03:02:27;11.60;99.90
43285;DHT22;28880;48.844;9.030;2022-09-12T03:05:00;11.60;99.90
43285;DHT22;28880;48.844;9.030;2022-09-12T03:07:54;11.60;99.90
43285;DHT22;28880;48.844;9.030;2022-09-12T03:10:39;11.60;99.90
43285;DHT22;28880;48.844;9.030;2022-09-12T03:13:15;11.60;99.90
43285;DHT22;28880;48.844;9.030;2022-09-12T03:15:55;11.60;99.90
43285;DHT22;28880;48.844;9.030;2022-09-12T03:18:52;11.60;99.90
43285;DHT22;28880;48.844;9.030;2022-09-12T03:21:36;11.60;99.90
43285;DHT22;28880;48.844;9.030;2022-09-12T03:26:52;11.70;99.90
43285;DHT22;28880;48.844;9.030;2022-09-12T03:29:19;11.60;99.90
43285;DHT22;28880;48.844;9.030;2022-09-12T03:31:51;11.60;99.90
43285;DHT22;28880;48.844;9.030;2022-09-12T03:34:18;11.60;99.90
43285;DHT22;28880;48.844;9.030;2022-09-12T03:36:45;11.60;99.90
43285;DHT22;28880;48.844;9.030;2022-09-12T03:39:10;11.60;99.90
43285;DHT22;28880;48.844;9.030;2022-09-12T03:41:36;11.60;99.90
43285;DHT22;28880;48.844;9.030;2022-09-12T03:44:02;11.60;99.90
43285;DHT22;28880;48.844;9.030;2022-09-12T03:46:28;11.60;99.90
43285;DHT22;28880;48.844;9.030;2022-09-12T03:48:54;11.60;99.90
43285;DHT22;28880;48.844;9.030;2022-09-12T03:51:19;11.60;99.90
43285;DHT22;28880;48.844;9.030;2022-09-12T03:53:45;11.60;99.90
43285;DHT22;28880;48.844;9.030;2022-09-12T03:56:12;11.60;99.90
43285;DHT22;28880;48.844;9.030;2022-09-12T03:58:38;11.60;99.90
43285;DHT22;28880;48.844;9.030;2022-09-12T04:01:12;11.60;99.90
43285;DHT22;28880;48.844;9.030;2022-09-12T04:03:42;11.60;99.90
43285;DHT22;28880;48.844;9.030;2022-09-12T04:06:10;11.70;99.90
43285;DHT22;28880;48.844;9.030;2022-09-12T04:08:36;11.60;99.90
43285;DHT22;28880;48.844;9.030;2022-09-12T04:11:13;11.60;99.90
43285;DHT22;28880;48.844;9.030;2022-09-12T04:13:40;11.60;99.90
43285;DHT22;28880;48.844;9.030;2022-09-12T04:16:06;11.60;99.90
43285;DHT22;28880;48.844;9.030;2022-09-12T04:18:32;11.60;99.90
43285;DHT22;28880;48.844;9.030;2022-09-12T04:21:02;11.50;99.90
43285;DHT22;28880;48.844;9.030;2022-09-12T04:23:27;11.50;99.90
43285;DHT22;28880;48.844;9.030;2022-09-12T04:25:58;11.50;99.90
43285;DHT22;28880;48.844;9.030;2022-09-12T04:28:25;11.40;99.90
43285;DHT22;28880;48.844;9.030;2022-09-12T04:30:51;11.50;99.90
43285;DHT22;28880;48.844;9.030;2022-09-12T04:33:17;11.40;99.90
43285;DHT22;28880;48.844;9.030;2022-09-12T04:35:42;11.50;99.90
43285;DHT22;28880;48.844;9.030;2022-09-12T04:38:10;11.40;99.90
43285;DHT22;28880;48.844;9.030;2022-09-12T04:40:35;11.40;99.90
43285;DHT22;28880;48.844;9.030;2022-09-12T04:43:01;11.40;99.90
43285;DHT22;28880;48.844;9.030;2022-09-12T04:45:26;11.40;99.90
43285;DHT22;28880;48.844;9.030;2022-09-12T04:47:52;11.40;99.90
43285;DHT22;28880;48.844;9.030;2022-09-12T04:50:18;11.30;99.90
43285;DHT22;28880;48.844;9.030;2022-09-12T04:52:50;11.30;99.90
43285;DHT22;28880;48.844;9.030;2022-09-12T04:55:16;11.30;99.90
43285;DHT22;28880;48.844;9.030;2022-09-12T04:57:42;11.30;99.90
43285;DHT22;28880;48.844;9.030;2022-09-12T05:00:08;11.30;99.90
43285;DHT22;28880;48.844;9.030;2022-09-12T05:02:37;11.30;99.90
43285;DHT22;28880;48.844;9.030;2022-09-12T05:05:03;11.30;99.90
43285;DHT22;28880;48.844;9.030;2022-09-12T05:07:29;11.40;99.90
43285;DHT22;28880;48.844;9.030;2022-09-12T05:09:55;11.40;99.90
43285;DHT22;28880;48.844;9.030;2022-09-12T05:12:20;11.40;99.90
43285;DHT22;28880;48.844;9.030;2022-09-12T05:14:46;11.40;99.90
43285;DHT22;28880;48.844;9.030;2022-09-12T05:17:11;11.40;99.90
43285;DHT22;28880;48.844;9.030;2022-09-12T05:19:37;11.30;99.90
43285;DHT22;28880;48.844;9.030;2022-09-12T05:22:03;11.30;99.90
43285;DHT22;28880;48.844;9.030;2022-09-12T05:24:30;11.30;99.90
43285;DHT22;28880;48.844;9.030;2022-09-12T05:26:57;11.30;99.90
43285;DHT22;28880;48.844;9.030;2022-09-12T05:29:22;11.30;99.90
43285;DHT22;28880;48.844;9.030;2022-09-12T05:31:49;11.30;99.90
43285;DHT22;28880;48.844;9.030;2022-09-12T05:34:17;11.30;99.90
43285;DHT22;28880;48.844;9.030;2022-09-12T05:36:43;11.30;99.90
43285;DHT22;28880;48.844;9.030;2022-09-12T05:39:08;11.30;99.90
43285;DHT22;28880;48.844;9.030;2022-09-12T05:41:34;11.30;99.90
43285;DHT22;28880;48.844;9.030;2022-09-12T05:44:02;11.30;99.90
43285;DHT22;28880;48.844;9.030;2022-09-12T05:46:30;11.40;99.90
43285;DHT22;28880;48.844;9.030;2022-09-12T05:49:02;11.40;99.90
43285;DHT22;28880;48.844;9.030;2022-09-12T05:51:31;11.40;99.90
43285;DHT22;28880;48.844;9.030;2022-09-12T05:53:59;11.50;99.90
43285;DHT22;28880;48.844;9.030;2022-09-12T05:56:27;11.60;99.90
43285;DHT22;28880;48.844;9.030;2022-09-12T05:59:08;11.60;99.90
43285;DHT22;28880;48.844;9.030;2022-09-12T06:01:36;11.70;99.90
43285;DHT22;28880;48.844;9.030;2022-09-12T06:04:04;11.80;99.90
43285;DHT22;28880;48.844;9.030;2022-09-12T06:06:31;11.90;99.90
43285;DHT22;28880;48.844;9.030;2022-09-12T06:08:59;12.00;99.90
43285;DHT22;28880;48.844;9.030;2022-09-12T06:11:27;12.00;99.90
43285;DHT22;28880;48.844;9.030;2022-09-12T06:13:55;12.00;99.90
43285;DHT22;28880;48.844;9.030;2022-09-12T06:16:23;12.10;99.90
43285;DHT22;28880;48.844;9.030;2022-09-12T06:19:02;12.20;99.90
43285;DHT22;28880;48.844;9.030;2022-09-12T06:21:29;12.20;99.90
43285;DHT22;28880;48.844;9.030;2022-09-12T06:23:58;12.30;99.90
43285;DHT22;28880;48.844;9.030;2022-09-12T06:26:24;12.40;99.90
43285;DHT22;28880;48.844;9.030;2022-09-12T06:28:52;12.40;99.90
43285;DHT22;28880;48.844;9.030;2022-09-12T06:31:23;12.50;99.90
43285;DHT22;28880;48.844;9.030;2022-09-12T06:33:51;12.60;99.90
43285;DHT22;28880;48.844;9.030;2022-09-12T06:38:45;12.70;99.90
43285;DHT22;28880;48.844;9.030;2022-09-12T06:41:13;12.80;99.90
43285;DHT22;28880;48.844;9.030;2022-09-12T06:43:40;12.80;99.90
43285;DHT22;28880;48.844;9.030;2022-09-12T06:46:07;12.80;99.90
43285;DHT22;28880;48.844;9.030;2022-09-12T06:48:33;12.90;99.90
43285;DHT22;28880;48.844;9.030;2022-09-12T06:51:08;13.00;99.90
43285;DHT22;28880;48.844;9.030;2022-09-12T06:53:34;13.10;99.90
43285;DHT22;28880;48.844;9.030;2022-09-12T06:56:05;13.10;99.90
43285;DHT22;28880;48.844;9.030;2022-09-12T06:58:32;13.20;99.90
43285;DHT22;28880;48.844;9.030;2022-09-12T07:03:30;13.40;99.90
43285;DHT22;28880;48.844;9.030;2022-09-12T07:05:56;13.60;99.90
43285;DHT22;28880;48.844;9.030;2022-09-12T07:08:22;13.70;99.90
43285;DHT22;28880;48.844;9.030;2022-09-12T07:10:47;13.80;99.90
43285;DHT22;28880;48.844;9.030;2022-09-12T07:13:13;13.90;99.90
43285;DHT22;28880;48.844;9.030;2022-09-12T07:15:38;14.00;99.90
43285;DHT22;28880;48.844;9.030;2022-09-12T07:18:05;14.10;99.90
43285;DHT22;28880;48.844;9.030;2022-09-12T07:20:30;14.20;99.90
43285;DHT22;28880;48.844;9.030;2022-09-12T07:23:00;14.30;99.90
43285;DHT22;28880;48.844;9.030;2022-09-12T07:25:25;14.30;99.90
43285;DHT22;28880;48.844;9.030;2022-09-12T07:27:52;14.40;99.90
43285;DHT22;28880;48.844;9.030;2022-09-12T07:30:18;14.50;99.90
43285;DHT22;28880;48.844;9.030;2022-09-12T07:32:44;14.60;99.90
43285;DHT22;28880;48.844;9.030;2022-09-12T07:35:09;14.70;99.90
43285;DHT22;28880;48.844;9.030;2022-09-12T07:37:35;14.80;99.90
43285;DHT22;28880;48.844;9.030;2022-09-12T07:40:01;14.80;99.90
43285;DHT22;28880;48.844;9.030;2022-09-12T07:42:27;14.90;99.90
43285;DHT22;28880;48.844;9.030;2022-09-12T07:44:52;15.00;99.90
43285;DHT22;28880;48.844;9.030;2022-09-12T07:47:18;15.10;99.90
43285;DHT22;28880;48.844;9.030;2022-09-12T07:49:43;15.20;99.90
43285;DHT22;28880;48.844;9.030;2022-09-12T07:52:09;15.30;99.90
43285;DHT22;28880;48.844;9.030;2022-09-12T07:54:35;15.30;99.90
43285;DHT22;28880;48.844;9.030;2022-09-12T07:57:00;15.40;99.90
43285;DHT22;28880;48.844;9.030;2022-09-12T07:59:26;15.50;99.90
43285;DHT22;28880;48.844;9.030;2022-09-12T08:01:52;15.60;99.90
43285;DHT22;28880;48.844;9.030;2022-09-12T08:04:18;15.70;99.90
43285;DHT22;28880;48.844;9.030;2022-09-12T08:06:44;15.80;99.90
43285;DHT22;28880;48.844;9.030;2022-09-12T08:09:09;15.90;99.90
43285;DHT22;28880;48.844;9.030;2022-09-12T08:11:37;16.00;99.90
43285;DHT22;28880;48.844;9.030;2022-09-12T08:14:03;16.10;99.90
43285;DHT22;28880;48.844;9.030;2022-09-12T08:16:30;16.20;99.90
43285;DHT22;28880;48.844;9.030;2022-09-12T08:18:56;16.20;99.90
43285;DHT22;28880;48.844;9.030;2022-09-12T08:21:24;16.30;99.90
43285;DHT22;28880;48.844;9.030;2022-09-12T08:23:56;16.40;99.90
43285;DHT22;28880;48.844;9.030;2022-09-12T08:26:21;16.40;99.90
43285;DHT22;28880;48.844;9.030;2022-09-12T08:28:48;16.50;99.90
43285;DHT22;28880;48.844;9.030;2022-09-12T08:31:15;16.60;99.90
43285;DHT22;28880;48.844;9.030;2022-09-12T08:33:41;16.60;99.90
43285;DHT22;28880;48.844;9.030;2022-09-12T08:38:43;16.70;99.90
43285;DHT22;28880;48.844;9.030;2022-09-12T08:41:31;16.80;99.90
43285;DHT22;28880;48.844;9.030;2022-09-12T08:47:17;17.00;99.90
43285;DHT22;28880;48.844;9.030;2022-09-12T08:52:48;17.20;99.90
43285;DHT22;28880;48.844;9.030;2022-09-12T08:55:26;17.40;99.90
43285;DHT22;28880;48.844;9.030;2022-09-12T08:57:53;17.50;99.90
43285;DHT22;28880;48.844;9.030;2022-09-12T09:00:19;17.60;99.90
43285;DHT22;28880;48.844;9.030;2022-09-12T09:06:07;17.80;99.90
43285;DHT22;28880;48.844;9.030;2022-09-12T09:08:45;17.80;99.90
43285;DHT22;28880;48.844;9.030;2022-09-12T09:17:02;18.20;99.90
43285;DHT22;28880;48.844;9.030;2022-09-12T09:19:37;18.30;99.90
43285;DHT22;28880;48.844;9.030;2022-09-12T09:22:11;18.40;99.90
43285;DHT22;28880;48.844;9.030;2022-09-12T09:24:42;18.40;99.90
43285;DHT22;28880;48.844;9.030;2022-09-12T09:29:49;18.60;99.90
43285;DHT22;28880;48.844;9.030;2022-09-12T09:32:18;18.70;99.90
43285;DHT22;28880;48.844;9.030;2022-09-12T09:34:48;18.70;99.90
43285;DHT22;28880;48.844;9.030;2022-09-12T09:37:34;18.80;99.90
43285;DHT22;28880;48.844;9.030;2022-09-12T09:40:09;18.90;99.90
43285;DHT22;28880;48.844;9.030;2022-09-12T09:42:55;18.90;99.90
43285;DHT22;28880;48.844;9.030;2022-09-12T09:45:24;19.00;99.90
43285;DHT22;28880;48.844;9.030;2022-09-12T09:48:00;19.10;99.90
43285;DHT22;28880;48.844;9.030;2022-09-12T09:50:28;19.20;99.90
43285;DHT22;28880;48.844;9.030;2022-09-12T09:52:55;19.30;99.90
43285;DHT22;28880;48.844;9.030;2022-09-12T09:55:27;19.40;99.90
43285;DHT22;28880;48.844;9.030;2022-09-12T09:57:53;19.60;99.90
43285;DHT22;28880;48.844;9.030;2022-09-12T10:00:23;19.70;99.90
43285;DHT22;28880;48.844;9.030;2022-09-12T10:03:17;19.80;99.90
43285;DHT22;28880;48.844;9.030;2022-09-12T10:05:49;19.80;99.90
43285;DHT22;28880;48.844;9.030;2022-09-12T10:08:23;19.90;99.90
43285;DHT22;28880;48.844;9.030;2022-09-12T10:10:58;19.90;99.90
43285;DHT22;28880;48.844;9.030;2022-09-12T10:13:52;20.10;99.90
43285;DHT22;28880;48.844;9.030;2022-09-12T10:16:28;20.20;99.90
43285;DHT22;28880;48.844;9.030;2022-09-12T10:18:56;20.30;99.90
43285;DHT22;28880;48.844;9.030;2022-09-12T10:24:00;20.50;99.90
43285;DHT22;28880;48.844;9.030;2022-09-12T10:26:35;20.60;99.90
43285;DHT22;28880;48.844;9.030;2022-09-12T10:29:12;20.80;99.90
43285;DHT22;28880;48.844;9.030;2022-09-12T10:32:00;20.80;99.80
43285;DHT22;28880;48.844;9.030;2022-09-12T10:34:32;21.00;98.90
43285;DHT22;28880;48.844;9.030;2022-09-12T10:37:02;21.00;99.50
43285;DHT22;28880;48.844;9.030;2022-09-12T10:39:28;21.10;99.00
43285;DHT22;28880;48.844;9.030;2022-09-12T10:41:55;21.20;99.40
43285;DHT22;28880;48.844;9.030;2022-09-12T10:44:29;21.20;98.40
43285;DHT22;28880;48.844;9.030;2022-09-12T10:46:56;21.20;98.20
43285;DHT22;28880;48.844;9.030;2022-09-12T10:49:30;21.20;98.30
43285;DHT22;28880;48.844;9.030;2022-09-12T10:52:11;21.30;98.00
43285;DHT22;28880;48.844;9.030;2022-09-12T10:54:39;21.40;97.60
43285;DHT22;28880;48.844;9.030;2022-09-12T11:00:01;21.50;97.00
43285;DHT22;28880;48.844;9.030;2022-09-12T11:02:47;21.50;97.10
43285;DHT22;28880;48.844;9.030;2022-09-12T11:11:13;21.70;96.70
43285;DHT22;28880;48.844;9.030;2022-09-12T11:13:52;21.80;96.30
43285;DHT22;28880;48.844;9.030;2022-09-12T11:16:40;21.90;96.20
43285;DHT22;28880;48.844;9.030;2022-09-12T11:30:32;22.30;94.90
43285;DHT22;28880;48.844;9.030;2022-09-12T11:35:46;22.30;93.30
43285;DHT22;28880;48.844;9.030;2022-09-12T11:38:56;22.20;93.40
43285;DHT22;28880;48.844;9.030;2022-09-12T11:41:32;22.10;93.40
43285;DHT22;28880;48.844;9.030;2022-09-12T11:46:45;22.30;93.60
43285;DHT22;28880;48.844;9.030;2022-09-12T11:51:59;22.60;93.50
43285;DHT22;28880;48.844;9.030;2022-09-12T12:02:40;22.60;92.80
43285;DHT22;28880;48.844;9.030;2022-09-12T12:05:20;22.70;92.30
43285;DHT22;28880;48.844;9.030;2022-09-12T12:07:57;22.70;91.40
43285;DHT22;28880;48.844;9.030;2022-09-12T12:10:39;22.60;91.70
43285;DHT22;28880;48.844;9.030;2022-09-12T12:16:01;22.70;91.70
43285;DHT22;28880;48.844;9.030;2022-09-12T12:18:30;22.70;92.20
43285;DHT22;28880;48.844;9.030;2022-09-12T12:36:57;23.20;91.00
43285;DHT22;28880;48.844;9.030;2022-09-12T12:41:59;23.20;88.60
43285;DHT22;28880;48.844;9.030;2022-09-12T12:47:22;23.20;89.40
43285;DHT22;28880;48.844;9.030;2022-09-12T12:50:07;23.20;88.00
43285;DHT22;28880;48.844;9.030;2022-09-12T12:55:29;23.40;89.00
43285;DHT22;28880;48.844;9.030;2022-09-12T12:57:57;23.50;89.50
43285;DHT22;28880;48.844;9.030;2022-09-12T13:02:55;23.80;89.90
43285;DHT22;28880;48.844;9.030;2022-09-12T13:05:23;23.90;88.00
43285;DHT22;28880;48.844;9.030;2022-09-12T13:08:01;24.00;87.70
43285;DHT22;28880;48.844;9.030;2022-09-12T13:10:28;24.20;88.60
43285;DHT22;28880;48.844;9.030;2022-09-12T13:12:58;24.40;86.50
43285;DHT22;28880;48.844;9.030;2022-09-12T13:18:10;24.50;87.50
43285;DHT22;28880;48.844;9.030;2022-09-12T13:20:50;24.60;86.20
43285;DHT22;28880;48.844;9.030;2022-09-12T13:23:28;24.60;84.10
43285;DHT22;28880;48.844;9.030;2022-09-12T13:25:59;24.50;83.40
43285;DHT22;28880;48.844;9.030;2022-09-12T13:28:29;24.50;83.70
43285;DHT22;28880;48.844;9.030;2022-09-12T13:33:31;24.60;85.30
43285;DHT22;28880;48.844;9.030;2022-09-12T13:44:19;25.30;81.80
43285;DHT22;28880;48.844;9.030;2022-09-12T13:46:46;25.30;81.30
43285;DHT22;28880;48.844;9.030;2022-09-12T13:49:23;25.50;82.00
43285;DHT22;28880;48.844;9.030;2022-09-12T13:52:06;25.60;79.20
43285;DHT22;28880;48.844;9.030;2022-09-12T13:54:37;25.80;79.50
43285;DHT22;28880;48.844;9.030;2022-09-12T13:57:03;26.10;78.90
43285;DHT22;28880;48.844;9.030;2022-09-12T13:59:39;26.20;79.80
43285;DHT22;28880;48.844;9.030;2022-09-12T14:02:21;26.50;79.00
43285;DHT22;28880;48.844;9.030;2022-09-12T14:04:48;26.80;80.30
43285;DHT22;28880;48.844;9.030;2022-09-12T14:07:46;27.10;79.90
43285;DHT22;28880;48.844;9.030;2022-09-12T14:10:27;27.60;78.10
43285;DHT22;28880;48.844;9.030;2022-09-12T14:12:55;27.80;78.60
43285;DHT22;28880;48.844;9.030;2022-09-12T14:15:24;28.10;75.80
43285;DHT22;28880;48.844;9.030;2022-09-12T14:17:54;28.30;75.50
43285;DHT22;28880;48.844;9.030;2022-09-12T14:20:22;28.80;73.50
43285;DHT22;28880;48.844;9.030;2022-09-12T14:22:51;29.20;71.90
43285;DHT22;28880;48.844;9.030;2022-09-12T14:25:22;29.50;72.50
43285;DHT22;28880;48.844;9.030;2022-09-12T14:27:55;29.90;70.10
43285;DHT22;28880;48.844;9.030;2022-09-12T14:30:29;30.10;69.80
43285;DHT22;28880;48.844;9.030;2022-09-12T14:35:51;30.40;68.70
43285;DHT22;28880;48.844;9.030;2022-09-12T14:38:25;30.80;66.50
43285;DHT22;28880;48.844;9.030;2022-09-12T14:41:01;30.90;67.20
43285;DHT22;28880;48.844;9.030;2022-09-12T14:43:31;31.20;66.60
43285;DHT22;28880;48.844;9.030;2022-09-12T14:46:00;31.50;66.10
43285;DHT22;28880;48.844;9.030;2022-09-12T14:48:33;31.60;63.80
43285;DHT22;28880;48.844;9.030;2022-09-12T14:51:00;31.60;63.00
43285;DHT22;28880;48.844;9.030;2022-09-12T14:53:34;31.60;62.30
43285;DHT22;28880;48.844;9.030;2022-09-12T14:56:09;31.60;62.10
43285;DHT22;28880;48.844;9.030;2022-09-12T14:58:36;31.80;62.10
43285;DHT22;28880;48.844;9.030;2022-09-12T15:06:27;32.30;60.80
43285;DHT22;28880;48.844;9.030;2022-09-12T15:08:54;32.30;60.00
43285;DHT22;28880;48.844;9.030;2022-09-12T15:11:21;32.30;59.60
43285;DHT22;28880;48.844;9.030;2022-09-12T15:13:46;32.30;59.40
43285;DHT22;28880;48.844;9.030;2022-09-12T15:16:12;32.40;60.10
43285;DHT22;28880;48.844;9.030;2022-09-12T15:18:38;32.50;59.50
43285;DHT22;28880;48.844;9.030;2022-09-12T15:21:05;32.50;59.00
43285;DHT22;28880;48.844;9.030;2022-09-12T15:23:43;32.50;58.20
43285;DHT22;28880;48.844;9.030;2022-09-12T15:26:15;32.40;58.30
43285;DHT22;28880;48.844;9.030;2022-09-12T15:28:41;32.00;56.70
43285;DHT22;28880;48.844;9.030;2022-09-12T15:33:36;31.10;57.20
43285;DHT22;28880;48.844;9.030;2022-09-12T15:36:02;31.10;59.00
43285;DHT22;28880;48.844;9.030;2022-09-12T15:38:28;31.20;61.60
43285;DHT22;28880;48.844;9.030;2022-09-12T15:40:54;31.40;63.40
43285;DHT22;28880;48.844;9.030;2022-09-12T15:43:21;31.30;63.50
43285;DHT22;28880;48.844;9.030;2022-09-12T15:45:48;31.30;64.90
43285;DHT22;28880;48.844;9.030;2022-09-12T15:48:14;31.20;64.30
43285;DHT22;28880;48.844;9.030;2022-09-12T15:50:40;31.10;62.60
43285;DHT22;28880;48.844;9.030;2022-09-12T15:53:13;31.20;61.60
43285;DHT22;28880;48.844;9.030;2022-09-12T15:55:39;31.10;62.30
43285;DHT22;28880;48.844;9.030;2022-09-12T15:58:05;31.10;58.40
43285;DHT22;28880;48.844;9.030;2022-09-12T16:00:30;31.00;60.60
43285;DHT22;28880;48.844;9.030;2022-09-12T16:02:56;31.10;58.90
43285;DHT22;28880;48.844;9.030;2022-09-12T16:05:23;30.90;61.00
43285;DHT22;28880;48.844;9.030;2022-09-12T16:07:53;30.80;57.40
43285;DHT22;28880;48.844;9.030;2022-09-12T16:10:22;30.60;59.70
43285;DHT22;28880;48.844;9.030;2022-09-12T16:12:48;30.40;56.60
43285;DHT22;28880;48.844;9.030;2022-09-12T16:15:18;30.00;57.30
43285;DHT22;28880;48.844;9.030;2022-09-12T16:17:43;30.10;60.30
43285;DHT22;28880;48.844;9.030;2022-09-12T16:20:10;29.80;56.70
43285;DHT22;28880;48.844;9.030;2022-09-12T16:22:36;29.40;56.20
43285;DHT22;28880;48.844;9.030;2022-09-12T16:25:02;29.10;56.30
43285;DHT22;28880;48.844;9.030;2022-09-12T16:27:28;28.90;57.00
43285;DHT22;28880;48.844;9.030;2022-09-12T16:29:54;28.90;58.90
43285;DHT22;28880;48.844;9.030;2022-09-12T16:32:19;28.90;59.00
43285;DHT22;28880;48.844;9.030;2022-09-12T16:34:45;28.90;60.90
43285;DHT22;28880;48.844;9.030;2022-09-12T16:37:10;28.70;61.10
43285;DHT22;28880;48.844;9.030;2022-09-12T16:39:36;28.60;60.70
43285;DHT22;28880;48.844;9.030;2022-09-12T16:42:02;28.40;62.30
43285;DHT22;28880;48.844;9.030;2022-09-12T16:44:27;28.20;63.40
43285;DHT22;28880;48.844;9.030;2022-09-12T16:46:53;27.90;63.40
43285;DHT22;28880;48.844;9.030;2022-09-12T16:49:19;27.70;63.00
43285;DHT22;28880;48.844;9.030;2022-09-12T16:51:46;27.40;61.90
43285;DHT22;28880;48.844;9.030;2022-09-12T16:54:13;27.10;62.50
43285;DHT22;28880;48.844;9.030;2022-09-12T16:56:39;26.80;65.00
43285;DHT22;28880;48.844;9.030;2022-09-12T16:59:05;26.50;64.80
43285;DHT22;28880;48.844;9.030;2022-09-12T17:01:31;26.20;66.00
43285;DHT22;28880;48.844;9.030;2022-09-12T17:03:59;25.90;66.40
43285;DHT22;28880;48.844;9.030;2022-09-12T17:06:25;25.70;66.50
43285;DHT22;28880;48.844;9.030;2022-09-12T17:08:52;25.40;67.10
43285;DHT22;28880;48.844;9.030;2022-09-12T17:11:24;25.20;67.30
43285;DHT22;28880;48.844;9.030;2022-09-12T17:13:53;25.00;68.20
43285;DHT22;28880;48.844;9.030;2022-09-12T17:16:22;24.90;69.40
43285;DHT22;28880;48.844;9.030;2022-09-12T17:18:48;24.60;70.10
43285;DHT22;28880;48.844;9.030;2022-09-12T17:21:14;24.50;70.70
43285;DHT22;28880;48.844;9.030;2022-09-12T17:23:40;24.40;71.60
43285;DHT22;28880;48.844;9.030;2022-09-12T17:26:06;24.20;71.90
43285;DHT22;28880;48.844;9.030;2022-09-12T17:28:32;24.10;72.30
43285;DHT22;28880;48.844;9.030;2022-09-12T17:31:03;23.90;72.60
43285;DHT22;28880;48.844;9.030;2022-09-12T17:33:29;23.80;73.20
43285;DHT22;28880;48.844;9.030;2022-09-12T17:36:09;23.70;73.80
43285;DHT22;28880;48.844;9.030;2022-09-12T17:38:36;23.50;74.70
43285;DHT22;28880;48.844;9.030;2022-09-12T17:41:07;23.30;76.30
43285;DHT22;28880;48.844;9.030;2022-09-12T17:43:34;23.10;77.70
43285;DHT22;28880;48.844;9.030;2022-09-12T17:46:03;22.90;78.70
43285;DHT22;28880;48.844;9.030;2022-09-12T17:48:29;22.80;79.40
43285;DHT22;28880;48.844;9.030;2022-09-12T17:50:54;22.60;81.00
43285;DHT22;28880;48.844;9.030;2022-09-12T17:53:20;22.40;81.90
43285;DHT22;28880;48.844;9.030;2022-09-12T17:55:45;22.20;82.90
43285;DHT22;28880;48.844;9.030;2022-09-12T17:58:12;22.10;84.50
43285;DHT22;28880;48.844;9.030;2022-09-12T18:00:37;21.90;85.00
43285;DHT22;28880;48.844;9.030;2022-09-12T18:03:22;21.80;85.00
43285;DHT22;28880;48.844;9.030;2022-09-12T18:05:52;21.60;86.10
43285;DHT22;28880;48.844;9.030;2022-09-12T18:08:18;21.50;88.20
43285;DHT22;28880;48.844;9.030;2022-09-12T18:10:44;21.30;88.10
43285;DHT22;28880;48.844;9.030;2022-09-12T18:13:11;21.20;88.40
43285;DHT22;28880;48.844;9.030;2022-09-12T18:15:36;21.10;89.90
43285;DHT22;28880;48.844;9.030;2022-09-12T18:18:03;20.90;90.40